sensor_id;sensor_type;location;lat;lon;timestamp;P1;durP1;ratioP1;P2;durP2;ratioP2
15679;SDS011;15488;48.114;11.532;2023-03-04T00:00:53;32.07;;;16.60;;
15679;SDS011;15488;48.114;11.532;2023-03-04T00:03:21;31.87;;;15.50;;
15679;SDS011;15488;48.114;11.532;2023-03-04T00:05:48;35.07;;;17.30;;
15679;SDS011;15488;48.114;11.532;2023-03-04T00:08:16;33.37;;;16.57;;
15679;SDS011;15488;48.114;11.532;2023-03-04T00:10:45;34.50;;;16.63;;
15679;SDS011;15488;48.114;11.532;2023-03-04T00:13:12;33.20;;;16.20;;
15679;SDS011;15488;48.114;11.532;2023-03-04T00:15:42;33.37;;;16.50;;
15679;SDS011;15488;48.114;11.532;2023-03-04T00:18:09;29.73;;;15.87;;
15679;SDS011;15488;48.114;11.532;2023-03-04T00:20:40;33.33;;;15.97;;
15679;SDS011;15488;48.114;11.532;2023-03-04T00:23:10;32.60;;;16.23;;
15679;SDS011;15488;48.114;11.532;2023-03-04T00:25:37;28.43;;;15.30;;
15679;SDS011;15488;48.114;11.532;2023-03-04T00:28:06;33.43;;;15.93;;
15679;SDS011;15488;48.114;11.532;2023-03-04T00:30:34;29.50;;;15.80;;
15679;SDS011;15488;48.114;11.532;2023-03-04T00:33:01;31.63;;;16.13;;
15679;SDS011;15488;48.114;11.532;2023-03-04T00:35:28;31.57;;;16.17;;
15679;SDS011;15488;48.114;11.532;2023-03-04T00:37:56;32.47;;;16.10;;
15679;SDS011;15488;48.114;11.532;2023-03-04T00:40:23;28.30;;;15.33;;
15679;SDS011;15488;48.114;11.532;2023-03-04T00:42:51;29.77;;;14.70;;
15679;SDS011;15488;48.114;11.532;2023-03-04T00:45:19;30.40;;;15.03;;
15679;SDS011;15488;48.114;11.532;2023-03-04T00:47:47;29.00;;;15.13;;
15679;SDS011;15488;48.114;11.532;2023-03-04T00:50:14;27.27;;;15.27;;
15679;SDS011;15488;48.114;11.532;2023-03-04T00:52:42;30.13;;;15.50;;
15679;SDS011;15488;48.114;11.532;2023-03-04T00:55:09;28.50;;;15.03;;
15679;SDS011;15488;48.114;11.532;2023-03-04T00:57:37;29.67;;;15.30;;
15679;SDS011;15488;48.114;11.532;2023-03-04T01:00:05;28.67;;;15.30;;
15679;SDS011;15488;48.114;11.532;2023-03-04T01:02:35;26.97;;;15.33;;
15679;SDS011;15488;48.114;11.532;2023-03-04T01:05:02;28.53;;;14.63;;
15679;SDS011;15488;48.114;11.532;2023-03-04T01:07:31;28.40;;;15.07;;
15679;SDS011;15488;48.114;11.532;2023-03-04T01:09:58;28.60;;;15.00;;
15679;SDS011;15488;48.114;11.532;2023-03-04T01:12:26;28.17;;;14.97;;
15679;SDS011;15488;48.114;11.532;2023-03-04T01:14:54;28.07;;;14.63;;
15679;SDS011;15488;48.114;11.532;2023-03-04T01:17:21;28.97;;;14.53;;
15679;SDS011;15488;48.114;11.532;2023-03-04T01:19:50;27.97;;;14.27;;
15679;SDS011;15488;48.114;11.532;2023-03-04T01:22:18;26.47;;;14.53;;
15679;SDS011;15488;48.114;11.532;2023-03-04T01:24:45;31.40;;;15.73;;
15679;SDS011;15488;48.114;11.532;2023-03-04T01:27:12;29.37;;;14.90;;
15679;SDS011;15488;48.114;11.532;2023-03-04T01:29:40;28.37;;;14.23;;
15679;SDS011;15488;48.114;11.532;2023-03-04T01:32:07;28.37;;;14.73;;
15679;SDS011;15488;48.114;11.532;2023-03-04T01:34:35;26.80;;;14.30;;
15679;SDS011;15488;48.114;11.532;2023-03-04T01:37:03;29.30;;;15.33;;
15679;SDS011;15488;48.114;11.532;2023-03-04T01:39:31;25.73;;;14.27;;
15679;SDS011;15488;48.114;11.532;2023-03-04T01:41:58;27.40;;;15.00;;
15679;SDS011;15488;48.114;11.532;2023-03-04T01:44:26;26.77;;;14.60;;
15679;SDS011;15488;48.114;11.532;2023-03-04T01:46:54;27.37;;;14.80;;
15679;SDS011;15488;48.114;11.532;2023-03-04T01:49:22;28.17;;;14.67;;
15679;SDS011;15488;48.114;11.532;2023-03-04T01:51:50;27.30;;;14.87;;
15679;SDS011;15488;48.114;11.532;2023-03-04T01:54:21;26.63;;;14.27;;
15679;SDS011;15488;48.114;11.532;2023-03-04T01:56:49;27.80;;;15.07;;
15679;SDS011;15488;48.114;11.532;2023-03-04T01:59:18;27.93;;;15.10;;
15679;SDS011;15488;48.114;11.532;2023-03-04T02:01:47;27.27;;;13.93;;
15679;SDS011;15488;48.114;11.532;2023-03-04T02:04:16;26.33;;;14.57;;
15679;SDS011;15488;48.114;11.532;2023-03-04T02:06:46;26.00;;;13.70;;
15679;SDS011;15488;48.114;11.532;2023-03-04T02:09:14;30.00;;;15.90;;
15679;SDS011;15488;48.114;11.532;2023-03-04T02:11:44;26.47;;;14.47;;
15679;SDS011;15488;48.114;11.532;2023-03-04T02:14:14;35.27;;;16.20;;
15679;SDS011;15488;48.114;11.532;2023-03-04T02:16:42;30.57;;;15.67;;
15679;SDS011;15488;48.114;11.532;2023-03-04T02:19:11;25.47;;;14.40;;
15679;SDS011;15488;48.114;11.532;2023-03-04T02:21:43;27.63;;;14.93;;
15679;SDS011;15488;48.114;11.532;2023-03-04T02:24:12;26.40;;;14.50;;
15679;SDS011;15488;48.114;11.532;2023-03-04T02:26:46;27.73;;;14.70;;
15679;SDS011;15488;48.114;11.532;2023-03-04T02:29:14;25.10;;;13.33;;
15679;SDS011;15488;48.114;11.532;2023-03-04T02:31:43;26.63;;;14.03;;
15679;SDS011;15488;48.114;11.532;2023-03-04T02:34:12;27.93;;;14.83;;
15679;SDS011;15488;48.114;11.532;2023-03-04T02:36:41;27.33;;;14.63;;
15679;SDS011;15488;48.114;11.532;2023-03-04T02:39:11;27.53;;;14.87;;
15679;SDS011;15488;48.114;11.532;2023-03-04T02:41:40;26.63;;;14.33;;
15679;SDS011;15488;48.114;11.532;2023-03-04T02:44:10;24.90;;;14.50;;
15679;SDS011;15488;48.114;11.532;2023-03-04T02:46:42;25.97;;;14.27;;
15679;SDS011;15488;48.114;11.532;2023-03-04T02:49:10;28.97;;;14.37;;
15679;SDS011;15488;48.114;11.532;2023-03-04T02:51:37;27.47;;;14.43;;
15679;SDS011;15488;48.114;11.532;2023-03-04T02:54:13;25.30;;;13.70;;
15679;SDS011;15488;48.114;11.532;2023-03-04T02:56:43;27.30;;;14.20;;
15679;SDS011;15488;48.114;11.532;2023-03-04T02:59:13;24.07;;;13.90;;
15679;SDS011;15488;48.114;11.532;2023-03-04T03:01:40;24.63;;;13.90;;
15679;SDS011;15488;48.114;11.532;2023-03-04T03:04:08;24.80;;;14.20;;
15679;SDS011;15488;48.114;11.532;2023-03-04T03:06:36;24.23;;;14.03;;
15679;SDS011;15488;48.114;11.532;2023-03-04T03:09:04;27.30;;;13.50;;
15679;SDS011;15488;48.114;11.532;2023-03-04T03:11:32;24.47;;;13.83;;
15679;SDS011;15488;48.114;11.532;2023-03-04T03:13:59;24.30;;;13.53;;
15679;SDS011;15488;48.114;11.532;2023-03-04T03:16:28;23.70;;;13.90;;
15679;SDS011;15488;48.114;11.532;2023-03-04T03:18:56;26.30;;;13.93;;
15679;SDS011;15488;48.114;11.532;2023-03-04T03:21:24;23.27;;;13.40;;
15679;SDS011;15488;48.114;11.532;2023-03-04T03:23:51;22.97;;;13.20;;
15679;SDS011;15488;48.114;11.532;2023-03-04T03:26:19;23.67;;;13.53;;
15679;SDS011;15488;48.114;11.532;2023-03-04T03:28:46;23.87;;;13.73;;
15679;SDS011;15488;48.114;11.532;2023-03-04T03:31:14;25.43;;;13.60;;
15679;SDS011;15488;48.114;11.532;2023-03-04T03:33:43;24.37;;;13.50;;
15679;SDS011;15488;48.114;11.532;2023-03-04T03:36:10;26.23;;;13.87;;
15679;SDS011;15488;48.114;11.532;2023-03-04T03:38:38;23.43;;;13.50;;
15679;SDS011;15488;48.114;11.532;2023-03-04T03:41:05;22.57;;;13.33;;
15679;SDS011;15488;48.114;11.532;2023-03-04T03:43:32;24.57;;;13.50;;
15679;SDS011;15488;48.114;11.532;2023-03-04T03:46:00;25.00;;;13.80;;
15679;SDS011;15488;48.114;11.532;2023-03-04T03:48:27;26.30;;;14.17;;
15679;SDS011;15488;48.114;11.532;2023-03-04T03:50:56;25.27;;;14.03;;
15679;SDS011;15488;48.114;11.532;2023-03-04T03:53:23;22.70;;;13.37;;
15679;SDS011;15488;48.114;11.532;2023-03-04T03:55:51;23.67;;;13.30;;
15679;SDS011;15488;48.114;11.532;2023-03-04T03:58:18;24.80;;;13.67;;
15679;SDS011;15488;48.114;11.532;2023-03-04T04:00:47;25.77;;;14.23;;
15679;SDS011;15488;48.114;11.532;2023-03-04T04:03:14;23.87;;;13.97;;
15679;SDS011;15488;48.114;11.532;2023-03-04T04:05:42;23.83;;;13.77;;
15679;SDS011;15488;48.114;11.532;2023-03-04T04:08:12;24.07;;;13.43;;
15679;SDS011;15488;48.114;11.532;2023-03-04T04:10:40;22.87;;;13.17;;
15679;SDS011;15488;48.114;11.532;2023-03-04T04:13:08;24.53;;;13.50;;
15679;SDS011;15488;48.114;11.532;2023-03-04T04:15:36;26.57;;;13.87;;
15679;SDS011;15488;48.114;11.532;2023-03-04T04:18:05;25.03;;;13.83;;
15679;SDS011;15488;48.114;11.532;2023-03-04T04:20:33;25.10;;;13.50;;
15679;SDS011;15488;48.114;11.532;2023-03-04T04:23:01;22.60;;;12.73;;
15679;SDS011;15488;48.114;11.532;2023-03-04T04:25:31;26.10;;;13.93;;
15679;SDS011;15488;48.114;11.532;2023-03-04T04:27:58;22.83;;;13.03;;
15679;SDS011;15488;48.114;11.532;2023-03-04T04:30:25;22.63;;;12.97;;
15679;SDS011;15488;48.114;11.532;2023-03-04T04:32:53;24.70;;;13.00;;
15679;SDS011;15488;48.114;11.532;2023-03-04T04:35:20;22.47;;;13.10;;
15679;SDS011;15488;48.114;11.532;2023-03-04T04:37:48;21.37;;;12.73;;
15679;SDS011;15488;48.114;11.532;2023-03-04T04:40:15;24.53;;;13.63;;
15679;SDS011;15488;48.114;11.532;2023-03-04T04:42:44;21.83;;;12.87;;
15679;SDS011;15488;48.114;11.532;2023-03-04T04:45:12;23.60;;;13.37;;
15679;SDS011;15488;48.114;11.532;2023-03-04T04:47:39;21.50;;;12.53;;
15679;SDS011;15488;48.114;11.532;2023-03-04T04:50:07;24.87;;;13.50;;
15679;SDS011;15488;48.114;11.532;2023-03-04T04:52:35;23.83;;;12.73;;
15679;SDS011;15488;48.114;11.532;2023-03-04T04:55:02;25.23;;;12.83;;
15679;SDS011;15488;48.114;11.532;2023-03-04T04:57:30;23.87;;;13.33;;
15679;SDS011;15488;48.114;11.532;2023-03-04T05:00:01;22.53;;;13.07;;
15679;SDS011;15488;48.114;11.532;2023-03-04T05:02:28;25.27;;;13.33;;
15679;SDS011;15488;48.114;11.532;2023-03-04T05:05:00;23.30;;;13.03;;
15679;SDS011;15488;48.114;11.532;2023-03-04T05:07:27;23.93;;;12.83;;
15679;SDS011;15488;48.114;11.532;2023-03-04T05:09:55;22.90;;;13.10;;
15679;SDS011;15488;48.114;11.532;2023-03-04T05:12:22;24.13;;;13.07;;
15679;SDS011;15488;48.114;11.532;2023-03-04T05:14:50;23.87;;;13.20;;
15679;SDS011;15488;48.114;11.532;2023-03-04T05:17:19;22.47;;;13.07;;
15679;SDS011;15488;48.114;11.532;2023-03-04T05:19:48;25.50;;;13.20;;
15679;SDS011;15488;48.114;11.532;2023-03-04T05:22:15;20.93;;;12.17;;
15679;SDS011;15488;48.114;11.532;2023-03-04T05:24:43;24.47;;;12.97;;
15679;SDS011;15488;48.114;11.532;2023-03-04T05:27:10;23.47;;;13.27;;
15679;SDS011;15488;48.114;11.532;2023-03-04T05:29:37;25.30;;;13.10;;
15679;SDS011;15488;48.114;11.532;2023-03-04T05:32:06;25.03;;;13.37;;
15679;SDS011;15488;48.114;11.532;2023-03-04T05:34:35;21.47;;;12.10;;
15679;SDS011;15488;48.114;11.532;2023-03-04T05:37:02;23.30;;;12.80;;
15679;SDS011;15488;48.114;11.532;2023-03-04T05:39:30;22.57;;;13.10;;
15679;SDS011;15488;48.114;11.532;2023-03-04T05:41:58;22.53;;;12.73;;
15679;SDS011;15488;48.114;11.532;2023-03-04T05:44:25;22.47;;;13.10;;
15679;SDS011;15488;48.114;11.532;2023-03-04T05:46:52;22.50;;;12.73;;
15679;SDS011;15488;48.114;11.532;2023-03-04T05:49:20;22.27;;;12.93;;
15679;SDS011;15488;48.114;11.532;2023-03-04T05:51:49;21.83;;;12.03;;
15679;SDS011;15488;48.114;11.532;2023-03-04T05:54:16;22.40;;;12.30;;
15679;SDS011;15488;48.114;11.532;2023-03-04T05:56:44;21.17;;;11.63;;
15679;SDS011;15488;48.114;11.532;2023-03-04T05:59:11;24.33;;;12.93;;
15679;SDS011;15488;48.114;11.532;2023-03-04T06:01:44;23.33;;;12.40;;
15679;SDS011;15488;48.114;11.532;2023-03-04T06:04:11;21.10;;;11.63;;
15679;SDS011;15488;48.114;11.532;2023-03-04T06:06:39;21.57;;;12.40;;
15679;SDS011;15488;48.114;11.532;2023-03-04T06:09:08;22.37;;;12.20;;
15679;SDS011;15488;48.114;11.532;2023-03-04T06:11:35;20.73;;;11.73;;
15679;SDS011;15488;48.114;11.532;2023-03-04T06:14:03;23.90;;;12.57;;
15679;SDS011;15488;48.114;11.532;2023-03-04T06:16:30;22.00;;;12.40;;
15679;SDS011;15488;48.114;11.532;2023-03-04T06:18:58;21.73;;;11.93;;
15679;SDS011;15488;48.114;11.532;2023-03-04T06:21:25;21.97;;;12.77;;
15679;SDS011;15488;48.114;11.532;2023-03-04T06:23:53;21.07;;;12.27;;
15679;SDS011;15488;48.114;11.532;2023-03-04T06:26:22;20.70;;;11.70;;
15679;SDS011;15488;48.114;11.532;2023-03-04T06:28:49;20.83;;;12.10;;
15679;SDS011;15488;48.114;11.532;2023-03-04T06:31:20;22.03;;;12.50;;
15679;SDS011;15488;48.114;11.532;2023-03-04T06:33:48;19.33;;;11.83;;
15679;SDS011;15488;48.114;11.532;2023-03-04T06:36:16;19.77;;;12.10;;
15679;SDS011;15488;48.114;11.532;2023-03-04T06:38:43;22.27;;;12.30;;
15679;SDS011;15488;48.114;11.532;2023-03-04T06:41:11;20.47;;;12.23;;
15679;SDS011;15488;48.114;11.532;2023-03-04T06:43:40;23.40;;;12.97;;
15679;SDS011;15488;48.114;11.532;2023-03-04T06:46:08;22.57;;;12.87;;
15679;SDS011;15488;48.114;11.532;2023-03-04T06:48:35;21.83;;;12.20;;
15679;SDS011;15488;48.114;11.532;2023-03-04T06:51:04;22.70;;;12.50;;
15679;SDS011;15488;48.114;11.532;2023-03-04T06:53:32;21.50;;;12.33;;
15679;SDS011;15488;48.114;11.532;2023-03-04T06:55:59;21.80;;;12.23;;
15679;SDS011;15488;48.114;11.532;2023-03-04T06:58:27;25.27;;;12.80;;
15679;SDS011;15488;48.114;11.532;2023-03-04T07:00:56;21.23;;;12.60;;
15679;SDS011;15488;48.114;11.532;2023-03-04T07:03:34;23.50;;;13.20;;
15679;SDS011;15488;48.114;11.532;2023-03-04T07:06:01;21.10;;;12.37;;
15679;SDS011;15488;48.114;11.532;2023-03-04T07:08:29;24.73;;;12.87;;
15679;SDS011;15488;48.114;11.532;2023-03-04T07:10:56;25.33;;;13.43;;
15679;SDS011;15488;48.114;11.532;2023-03-04T07:13:23;21.90;;;12.80;;
15679;SDS011;15488;48.114;11.532;2023-03-04T07:15:51;23.03;;;12.83;;
15679;SDS011;15488;48.114;11.532;2023-03-04T07:18:20;21.97;;;12.80;;
15679;SDS011;15488;48.114;11.532;2023-03-04T07:20:50;24.10;;;13.20;;
15679;SDS011;15488;48.114;11.532;2023-03-04T07:23:18;23.00;;;13.00;;
15679;SDS011;15488;48.114;11.532;2023-03-04T07:25:47;26.87;;;13.80;;
15679;SDS011;15488;48.114;11.532;2023-03-04T07:28:15;23.53;;;13.80;;
15679;SDS011;15488;48.114;11.532;2023-03-04T07:30:43;26.20;;;13.93;;
15679;SDS011;15488;48.114;11.532;2023-03-04T07:33:10;27.13;;;14.20;;
15679;SDS011;15488;48.114;11.532;2023-03-04T07:35:40;26.80;;;14.37;;
15679;SDS011;15488;48.114;11.532;2023-03-04T07:38:08;24.43;;;13.53;;
15679;SDS011;15488;48.114;11.532;2023-03-04T07:40:35;25.77;;;14.40;;
15679;SDS011;15488;48.114;11.532;2023-03-04T07:43:03;25.10;;;14.50;;
15679;SDS011;15488;48.114;11.532;2023-03-04T07:45:31;25.23;;;14.20;;
15679;SDS011;15488;48.114;11.532;2023-03-04T07:47:58;25.77;;;14.07;;
15679;SDS011;15488;48.114;11.532;2023-03-04T07:50:26;28.17;;;14.03;;
15679;SDS011;15488;48.114;11.532;2023-03-04T07:52:54;23.73;;;14.07;;
15679;SDS011;15488;48.114;11.532;2023-03-04T07:55:22;29.37;;;14.43;;
15679;SDS011;15488;48.114;11.532;2023-03-04T07:57:49;25.93;;;14.40;;
15679;SDS011;15488;48.114;11.532;2023-03-04T08:00:17;27.20;;;14.60;;
15679;SDS011;15488;48.114;11.532;2023-03-04T08:02:45;32.00;;;15.70;;
15679;SDS011;15488;48.114;11.532;2023-03-04T08:05:12;31.87;;;15.33;;
15679;SDS011;15488;48.114;11.532;2023-03-04T08:07:40;29.87;;;16.10;;
15679;SDS011;15488;48.114;11.532;2023-03-04T08:10:10;28.77;;;15.50;;
15679;SDS011;15488;48.114;11.532;2023-03-04T08:12:37;27.73;;;14.93;;
15679;SDS011;15488;48.114;11.532;2023-03-04T08:15:05;29.00;;;15.50;;
15679;SDS011;15488;48.114;11.532;2023-03-04T08:17:34;29.60;;;15.63;;
15679;SDS011;15488;48.114;11.532;2023-03-04T08:20:01;28.53;;;15.43;;
15679;SDS011;15488;48.114;11.532;2023-03-04T08:22:31;30.53;;;15.97;;
15679;SDS011;15488;48.114;11.532;2023-03-04T08:24:59;31.47;;;15.90;;
15679;SDS011;15488;48.114;11.532;2023-03-04T08:27:28;30.47;;;16.33;;
15679;SDS011;15488;48.114;11.532;2023-03-04T08:29:55;28.80;;;15.10;;
15679;SDS011;15488;48.114;11.532;2023-03-04T08:32:23;29.50;;;15.23;;
15679;SDS011;15488;48.114;11.532;2023-03-04T08:34:50;29.23;;;15.20;;
15679;SDS011;15488;48.114;11.532;2023-03-04T08:37:20;28.80;;;15.17;;
15679;SDS011;15488;48.114;11.532;2023-03-04T08:39:47;37.33;;;18.97;;
15679;SDS011;15488;48.114;11.532;2023-03-04T08:42:18;33.10;;;17.33;;
15679;SDS011;15488;48.114;11.532;2023-03-04T08:44:46;30.10;;;15.77;;
15679;SDS011;15488;48.114;11.532;2023-03-04T08:47:14;27.50;;;15.07;;
15679;SDS011;15488;48.114;11.532;2023-03-04T08:49:41;27.37;;;14.93;;
15679;SDS011;15488;48.114;11.532;2023-03-04T08:52:09;29.27;;;14.93;;
15679;SDS011;15488;48.114;11.532;2023-03-04T08:54:36;30.50;;;15.30;;
15679;SDS011;15488;48.114;11.532;2023-03-04T08:57:04;30.17;;;15.50;;
15679;SDS011;15488;48.114;11.532;2023-03-04T08:59:31;29.23;;;14.97;;
15679;SDS011;15488;48.114;11.532;2023-03-04T09:02:00;27.97;;;15.13;;
15679;SDS011;15488;48.114;11.532;2023-03-04T09:04:28;25.67;;;14.37;;
15679;SDS011;15488;48.114;11.532;2023-03-04T09:06:55;30.53;;;15.80;;
15679;SDS011;15488;48.114;11.532;2023-03-04T09:09:23;25.60;;;13.97;;
15679;SDS011;15488;48.114;11.532;2023-03-04T09:11:50;27.87;;;15.00;;
15679;SDS011;15488;48.114;11.532;2023-03-04T09:14:17;23.70;;;13.87;;
15679;SDS011;15488;48.114;11.532;2023-03-04T09:16:45;29.10;;;14.67;;
15679;SDS011;15488;48.114;11.532;2023-03-04T09:19:14;22.33;;;13.13;;
15679;SDS011;15488;48.114;11.532;2023-03-04T09:21:41;25.33;;;12.80;;
15679;SDS011;15488;48.114;11.532;2023-03-04T09:24:09;25.40;;;13.03;;
15679;SDS011;15488;48.114;11.532;2023-03-04T09:26:36;25.13;;;13.20;;
15679;SDS011;15488;48.114;11.532;2023-03-04T09:29:04;24.53;;;12.90;;
15679;SDS011;15488;48.114;11.532;2023-03-04T09:31:31;23.37;;;12.63;;
15679;SDS011;15488;48.114;11.532;2023-03-04T09:33:59;21.23;;;12.80;;
15679;SDS011;15488;48.114;11.532;2023-03-04T09:36:27;22.40;;;13.20;;
15679;SDS011;15488;48.114;11.532;2023-03-04T09:38:57;21.27;;;12.17;;
15679;SDS011;15488;48.114;11.532;2023-03-04T09:41:26;24.20;;;12.47;;
15679;SDS011;15488;48.114;11.532;2023-03-04T09:43:58;20.97;;;12.03;;
15679;SDS011;15488;48.114;11.532;2023-03-04T09:46:31;23.53;;;12.27;;
15679;SDS011;15488;48.114;11.532;2023-03-04T09:49:00;19.83;;;11.73;;
15679;SDS011;15488;48.114;11.532;2023-03-04T09:51:36;22.73;;;11.73;;
15679;SDS011;15488;48.114;11.532;2023-03-04T09:54:14;19.83;;;11.57;;
15679;SDS011;15488;48.114;11.532;2023-03-04T09:56:46;25.90;;;13.17;;
15679;SDS011;15488;48.114;11.532;2023-03-04T09:59:20;22.00;;;12.47;;
15679;SDS011;15488;48.114;11.532;2023-03-04T10:01:55;20.90;;;11.80;;
15679;SDS011;15488;48.114;11.532;2023-03-04T10:04:28;21.30;;;12.23;;
15679;SDS011;15488;48.114;11.532;2023-03-04T10:07:00;22.13;;;13.00;;
15679;SDS011;15488;48.114;11.532;2023-03-04T10:09:31;23.70;;;13.00;;
15679;SDS011;15488;48.114;11.532;2023-03-04T10:12:11;25.13;;;12.57;;
15679;SDS011;15488;48.114;11.532;2023-03-04T10:14:42;21.97;;;12.67;;
15679;SDS011;15488;48.114;11.532;2023-03-04T10:17:16;22.93;;;12.70;;
15679;SDS011;15488;48.114;11.532;2023-03-04T10:19:50;21.47;;;11.93;;
15679;SDS011;15488;48.114;11.532;2023-03-04T10:22:27;21.17;;;10.73;;
15679;SDS011;15488;48.114;11.532;2023-03-04T10:24:58;22.83;;;12.13;;
15679;SDS011;15488;48.114;11.532;2023-03-04T10:27:35;19.47;;;11.03;;
15679;SDS011;15488;48.114;11.532;2023-03-04T10:30:05;20.43;;;11.10;;
15679;SDS011;15488;48.114;11.532;2023-03-04T10:32:44;19.17;;;10.07;;
15679;SDS011;15488;48.114;11.532;2023-03-04T10:35:13;23.70;;;11.93;;
15679;SDS011;15488;48.114;11.532;2023-03-04T10:37:46;21.33;;;11.10;;
15679;SDS011;15488;48.114;11.532;2023-03-04T10:40:19;22.90;;;12.17;;
15679;SDS011;15488;48.114;11.532;2023-03-04T10:42:48;24.27;;;11.53;;
15679;SDS011;15488;48.114;11.532;2023-03-04T10:45:20;23.13;;;11.23;;
15679;SDS011;15488;48.114;11.532;2023-03-04T10:47:55;22.90;;;11.93;;
15679;SDS011;15488;48.114;11.532;2023-03-04T10:50:23;23.40;;;12.83;;
15679;SDS011;15488;48.114;11.532;2023-03-04T10:52:54;18.97;;;11.40;;
15679;SDS011;15488;48.114;11.532;2023-03-04T10:55:23;23.13;;;11.20;;
15679;SDS011;15488;48.114;11.532;2023-03-04T10:57:53;20.73;;;11.67;;
15679;SDS011;15488;48.114;11.532;2023-03-04T11:00:23;23.60;;;12.10;;
15679;SDS011;15488;48.114;11.532;2023-03-04T11:03:11;21.77;;;11.33;;
15679;SDS011;15488;48.114;11.532;2023-03-04T11:06:05;22.67;;;12.07;;
15679;SDS011;15488;48.114;11.532;2023-03-04T11:08:40;22.60;;;12.87;;
15679;SDS011;15488;48.114;11.532;2023-03-04T11:11:20;21.50;;;11.13;;
15679;SDS011;15488;48.114;11.532;2023-03-04T11:13:59;19.57;;;10.23;;
15679;SDS011;15488;48.114;11.532;2023-03-04T11:16:30;22.03;;;11.33;;
15679;SDS011;15488;48.114;11.532;2023-03-04T11:19:01;19.87;;;10.70;;
15679;SDS011;15488;48.114;11.532;2023-03-04T11:21:33;21.30;;;12.03;;
15679;SDS011;15488;48.114;11.532;2023-03-04T11:24:05;24.73;;;12.30;;
15679;SDS011;15488;48.114;11.532;2023-03-04T11:26:39;21.77;;;11.30;;
15679;SDS011;15488;48.114;11.532;2023-03-04T11:29:12;25.70;;;13.47;;
15679;SDS011;15488;48.114;11.532;2023-03-04T11:31:45;25.43;;;12.90;;
15679;SDS011;15488;48.114;11.532;2023-03-04T11:34:19;22.47;;;12.10;;
15679;SDS011;15488;48.114;11.532;2023-03-04T11:36:56;23.10;;;13.50;;
15679;SDS011;15488;48.114;11.532;2023-03-04T11:39:31;23.20;;;13.57;;
15679;SDS011;15488;48.114;11.532;2023-03-04T11:42:04;25.80;;;13.67;;
15679;SDS011;15488;48.114;11.532;2023-03-04T11:44:37;26.83;;;13.60;;
15679;SDS011;15488;48.114;11.532;2023-03-04T11:47:07;22.83;;;13.23;;
15679;SDS011;15488;48.114;11.532;2023-03-04T12:01:50;27.37;;;14.63;;
15679;SDS011;15488;48.114;11.532;2023-03-04T12:04:30;28.10;;;13.73;;
15679;SDS011;15488;48.114;11.532;2023-03-04T12:07:15;27.03;;;13.97;;
15679;SDS011;15488;48.114;11.532;2023-03-04T12:09:56;28.47;;;14.53;;
15679;SDS011;15488;48.114;11.532;2023-03-04T12:12:34;27.47;;;14.57;;
15679;SDS011;15488;48.114;11.532;2023-03-04T12:15:15;25.63;;;13.73;;
15679;SDS011;15488;48.114;11.532;2023-03-04T12:17:51;25.60;;;13.60;;
15679;SDS011;15488;48.114;11.532;2023-03-04T12:20:39;24.03;;;13.63;;
15679;SDS011;15488;48.114;11.532;2023-03-04T12:23:27;23.30;;;13.50;;
15679;SDS011;15488;48.114;11.532;2023-03-04T12:26:10;24.17;;;14.27;;
15679;SDS011;15488;48.114;11.532;2023-03-04T12:28:52;25.60;;;15.03;;
15679;SDS011;15488;48.114;11.532;2023-03-04T12:31:31;26.73;;;14.90;;
15679;SDS011;15488;48.114;11.532;2023-03-04T12:34:08;25.10;;;14.70;;
15679;SDS011;15488;48.114;11.532;2023-03-04T12:37:18;23.90;;;14.27;;
15679;SDS011;15488;48.114;11.532;2023-03-04T12:40:11;27.37;;;14.60;;
15679;SDS011;15488;48.114;11.532;2023-03-04T12:43:03;23.87;;;13.67;;
15679;SDS011;15488;48.114;11.532;2023-03-04T12:45:43;23.00;;;13.77;;
15679;SDS011;15488;48.114;11.532;2023-03-04T12:48:24;22.70;;;13.57;;
15679;SDS011;15488;48.114;11.532;2023-03-04T12:51:04;24.10;;;14.13;;
15679;SDS011;15488;48.114;11.532;2023-03-04T12:53:42;21.77;;;13.57;;
15679;SDS011;15488;48.114;11.532;2023-03-04T12:56:21;22.30;;;14.07;;
15679;SDS011;15488;48.114;11.532;2023-03-04T12:58:51;22.57;;;13.17;;
15679;SDS011;15488;48.114;11.532;2023-03-04T13:01:21;21.03;;;13.80;;
15679;SDS011;15488;48.114;11.532;2023-03-04T13:03:52;23.20;;;15.43;;
15679;SDS011;15488;48.114;11.532;2023-03-04T13:06:27;21.83;;;13.67;;
15679;SDS011;15488;48.114;11.532;2023-03-04T13:09:02;20.07;;;13.27;;
15679;SDS011;15488;48.114;11.532;2023-03-04T13:14:32;22.60;;;14.20;;
15679;SDS011;15488;48.114;11.532;2023-03-04T13:17:01;20.03;;;13.90;;
15679;SDS011;15488;48.114;11.532;2023-03-04T13:19:49;20.47;;;12.83;;
15679;SDS011;15488;48.114;11.532;2023-03-04T13:22:34;20.57;;;14.07;;
15679;SDS011;15488;48.114;11.532;2023-03-04T13:31:06;18.90;;;12.80;;
15679;SDS011;15488;48.114;11.532;2023-03-04T13:33:43;17.40;;;12.57;;
15679;SDS011;15488;48.114;11.532;2023-03-04T13:36:27;16.90;;;12.30;;
15679;SDS011;15488;48.114;11.532;2023-03-04T13:39:23;18.33;;;13.33;;
15679;SDS011;15488;48.114;11.532;2023-03-04T13:41:58;18.27;;;13.67;;
15679;SDS011;15488;48.114;11.532;2023-03-04T13:50:48;18.90;;;13.33;;
15679;SDS011;15488;48.114;11.532;2023-03-04T13:53:28;16.37;;;13.00;;
15679;SDS011;15488;48.114;11.532;2023-03-04T13:56:08;15.63;;;12.63;;
15679;SDS011;15488;48.114;11.532;2023-03-04T13:59:00;15.20;;;12.73;;
15679;SDS011;15488;48.114;11.532;2023-03-04T14:04:41;15.90;;;12.60;;
15679;SDS011;15488;48.114;11.532;2023-03-04T14:07:17;16.23;;;12.47;;
15679;SDS011;15488;48.114;11.532;2023-03-04T14:09:54;15.67;;;12.37;;
15679;SDS011;15488;48.114;11.532;2023-03-04T14:12:23;15.43;;;12.77;;
15679;SDS011;15488;48.114;11.532;2023-03-04T14:14:53;16.65;;;13.00;;
15679;SDS011;15488;48.114;11.532;2023-03-04T14:17:24;14.30;;;12.53;;
15679;SDS011;15488;48.114;11.532;2023-03-04T14:19:59;15.30;;;12.17;;
15679;SDS011;15488;48.114;11.532;2023-03-04T14:22:28;15.33;;;12.63;;
15679;SDS011;15488;48.114;11.532;2023-03-04T14:24:58;16.17;;;12.57;;
15679;SDS011;15488;48.114;11.532;2023-03-04T14:27:27;14.83;;;12.17;;
15679;SDS011;15488;48.114;11.532;2023-03-04T14:29:57;13.50;;;11.85;;
15679;SDS011;15488;48.114;11.532;2023-03-04T14:32:26;15.05;;;11.60;;
15679;SDS011;15488;48.114;11.532;2023-03-04T14:34:56;13.50;;;11.97;;
15679;SDS011;15488;48.114;11.532;2023-03-04T14:37:29;15.65;;;12.98;;
15679;SDS011;15488;48.114;11.532;2023-03-04T14:40:03;15.43;;;12.53;;
15679;SDS011;15488;48.114;11.532;2023-03-04T14:42:34;14.57;;;12.07;;
15679;SDS011;15488;48.114;11.532;2023-03-04T14:45:08;14.35;;;12.10;;
15679;SDS011;15488;48.114;11.532;2023-03-04T14:47:38;14.37;;;11.50;;
15679;SDS011;15488;48.114;11.532;2023-03-04T14:50:12;14.25;;;11.77;;
15679;SDS011;15488;48.114;11.532;2023-03-04T14:52:41;13.03;;;11.63;;
15679;SDS011;15488;48.114;11.532;2023-03-04T14:55:21;12.77;;;11.37;;
15679;SDS011;15488;48.114;11.532;2023-03-04T14:57:50;12.18;;;10.52;;